Weather at Yalata Mission Airport

Public forecast

Using degrees Celsius for public forecast. Weather courtesy of forecast.io.

Closest aviation weather report (METAR) to Yalata Mission Airport

Closest report is Ceduna Airport, 104.0 nm (192.7 km) ESE. Retrieved 2021/11/27 14:00 UTC (53 minutes ago):

YCDU 271400Z AUTO 15012KT 9999 // NCD 16/10 Q1020

Closest aviation forecast (TAF) to Yalata Mission Airport

Closest forecast is Forrest Airport, 194.4 nm (360.0 km) W. Retrieved 2021/11/27 14:00 UTC (53 minutes ago):

TAF YFRT 271251Z 2714/2802 14010KT 9999 SCT025 FM271800 13007KT 9999 BKN025 FM272300 08008KT CAVOK